createdAt,value
2024-01-20T00:00:24.228Z,44.17
2024-01-20T00:01:24.113Z,44.07
2024-01-20T00:02:24.178Z,44.20
2024-01-20T00:03:24.252Z,44.40
2024-01-20T00:04:24.351Z,45.39
2024-01-20T00:05:24.548Z,45.04
2024-01-20T00:06:24.303Z,45.46
2024-01-20T00:07:24.305Z,46.03
2024-01-20T00:08:24.367Z,46.21
2024-01-20T00:09:29.005Z,46.72
2024-01-20T00:10:25.373Z,46.23
2024-01-20T00:11:24.413Z,46.17
2024-01-20T00:12:24.364Z,46.01
2024-01-20T00:13:24.388Z,45.78
2024-01-20T00:14:24.436Z,45.25
2024-01-20T00:15:24.380Z,44.37
2024-01-20T00:16:24.383Z,44.20
2024-01-20T00:17:27.146Z,45.40
2024-01-20T00:18:24.504Z,44.15
2024-01-20T00:19:24.389Z,43.93
2024-01-20T00:20:24.418Z,44.16
2024-01-20T00:21:24.389Z,44.72
2024-01-20T00:22:24.383Z,46.06
2024-01-20T00:23:24.414Z,46.84
2024-01-20T00:24:24.380Z,45.97
2024-01-20T00:25:24.377Z,45.39
2024-01-20T00:26:24.409Z,45.56
2024-01-20T00:27:24.427Z,45.62
2024-01-20T00:28:24.430Z,45.62
2024-01-20T00:29:24.411Z,45.93
2024-01-20T00:30:24.421Z,46.86
2024-01-20T00:31:24.428Z,47.02
2024-01-20T00:32:24.481Z,47.80
2024-01-20T00:33:24.530Z,47.12
2024-01-20T00:34:24.425Z,46.34
2024-01-20T00:35:24.460Z,46.37
2024-01-20T00:36:24.420Z,46.40
2024-01-20T00:37:24.429Z,45.59
2024-01-20T00:38:24.520Z,45.22
2024-01-20T00:39:24.435Z,45.11
2024-01-20T00:40:24.432Z,44.58
2024-01-20T00:41:24.483Z,46.04
2024-01-20T00:42:24.460Z,46.31
2024-01-20T00:43:24.454Z,46.94
2024-01-20T00:44:24.441Z,46.93
2024-01-20T00:45:24.468Z,46.27
2024-01-20T00:46:24.457Z,45.64
2024-01-20T00:47:24.492Z,46.71
2024-01-20T00:48:24.483Z,46.98
2024-01-20T00:49:24.473Z,46.50
2024-01-20T00:50:24.552Z,46.57
2024-01-20T00:51:25.483Z,46.69
2024-01-20T00:52:24.512Z,46.70
2024-01-20T00:53:24.536Z,47.50
2024-01-20T00:54:24.498Z,47.71
2024-01-20T00:55:24.510Z,48.87
2024-01-20T00:56:24.527Z,48.02
2024-01-20T00:57:24.501Z,47.98
2024-01-20T00:58:24.512Z,47.83
2024-01-20T00:59:24.495Z,47.66
2024-01-20T01:00:24.515Z,47.20
2024-01-20T01:01:24.573Z,46.57
2024-01-20T01:02:24.738Z,45.18
2024-01-20T01:03:24.714Z,45.17
2024-01-20T01:04:24.755Z,44.22
2024-01-20T01:05:24.855Z,44.32
2024-01-20T01:06:24.995Z,44.56
2024-01-20T01:07:24.910Z,44.54
2024-01-20T01:08:25.080Z,45.26
2024-01-20T01:09:25.061Z,44.59
2024-01-20T01:10:25.083Z,43.86
2024-01-20T01:11:25.128Z,44.72
2024-01-20T01:12:25.109Z,45.49
2024-01-20T01:13:25.132Z,45.51
2024-01-20T01:14:25.202Z,46.00
2024-01-20T01:15:25.177Z,45.64
2024-01-20T01:16:25.236Z,45.36
2024-01-20T01:17:25.310Z,45.33
2024-01-20T01:18:25.279Z,45.00
2024-01-20T01:19:25.320Z,44.89
2024-01-20T01:20:25.467Z,45.05
2024-01-20T01:21:25.437Z,45.90
2024-01-20T01:22:25.470Z,46.05
2024-01-20T01:23:25.593Z,46.11
2024-01-20T01:24:25.591Z,46.23
2024-01-20T01:25:25.652Z,46.35
2024-01-20T01:26:27.658Z,46.58
2024-01-20T01:27:25.815Z,46.62
2024-01-20T01:28:25.718Z,46.97
2024-01-20T01:29:25.835Z,46.26
2024-01-20T01:30:25.716Z,46.20
2024-01-20T01:31:25.721Z,46.58
2024-01-20T01:32:25.825Z,46.46
2024-01-20T01:33:25.782Z,46.67
2024-01-20T01:34:25.729Z,45.58
2024-01-20T01:35:25.751Z,44.28
2024-01-20T01:36:25.738Z,43.59
2024-01-20T01:37:25.747Z,43.65
2024-01-20T01:38:25.752Z,43.36
2024-01-20T01:39:25.778Z,44.54
2024-01-20T01:40:25.752Z,45.09
2024-01-20T01:41:25.741Z,44.55
2024-01-20T01:42:25.760Z,45.03
2024-01-20T01:43:25.750Z,45.78
2024-01-20T01:44:25.762Z,45.92
2024-01-20T01:45:25.744Z,46.58
2024-01-20T01:46:25.767Z,46.92
2024-01-20T01:47:25.772Z,47.05
2024-01-20T01:48:25.791Z,47.11
2024-01-20T01:49:25.782Z,47.51
2024-01-20T01:50:25.843Z,47.78
2024-01-20T01:51:25.769Z,48.11
2024-01-20T01:52:25.776Z,48.46
2024-01-20T01:53:25.769Z,49.28
2024-01-20T01:54:25.926Z,49.39
2024-01-20T01:55:25.800Z,50.20
2024-01-20T01:56:25.796Z,50.63
2024-01-20T01:57:25.859Z,50.17
2024-01-20T01:58:25.795Z,49.72
2024-01-20T01:59:25.821Z,49.40
2024-01-20T02:00:25.794Z,50.27
2024-01-20T02:01:25.790Z,49.82
2024-01-20T02:02:25.780Z,49.55
2024-01-20T02:03:25.899Z,49.22
2024-01-20T02:04:25.836Z,49.14
2024-01-20T02:05:25.813Z,48.84
2024-01-20T02:06:25.822Z,48.49
2024-01-20T02:07:25.795Z,48.28
2024-01-20T02:08:25.807Z,48.85
2024-01-20T02:09:25.839Z,49.52
2024-01-20T02:10:25.806Z,49.64
2024-01-20T02:11:25.796Z,49.17
2024-01-20T02:12:25.826Z,49.44
2024-01-20T02:13:25.797Z,48.91
2024-01-20T02:14:25.826Z,48.56
2024-01-20T02:15:25.895Z,48.21
2024-01-20T02:16:25.880Z,47.65
2024-01-20T02:17:25.926Z,46.36
2024-01-20T02:18:26.104Z,46.49
2024-01-20T02:19:26.050Z,47.24
2024-01-20T02:20:26.102Z,47.30
2024-01-20T02:21:26.200Z,47.32
2024-01-20T02:22:26.198Z,47.72
2024-01-20T02:23:26.217Z,48.59
2024-01-20T02:24:26.275Z,49.46
2024-01-20T02:25:26.267Z,49.39
2024-01-20T02:26:26.270Z,49.78
2024-01-20T02:27:26.341Z,49.74
2024-01-20T02:28:26.323Z,48.91
2024-01-20T02:29:26.293Z,49.08
2024-01-20T02:30:26.397Z,49.67
2024-01-20T02:31:26.437Z,50.97
2024-01-20T02:32:26.500Z,51.45
2024-01-20T02:33:26.627Z,51.14
2024-01-20T02:34:26.707Z,50.93
2024-01-20T02:35:26.626Z,51.08
2024-01-20T02:36:26.684Z,51.07
2024-01-20T02:37:26.680Z,51.14
2024-01-20T02:38:26.730Z,51.30
2024-01-20T02:39:26.853Z,51.21
2024-01-20T02:40:26.814Z,51.35
2024-01-20T02:41:26.878Z,50.54
2024-01-20T02:42:26.985Z,50.75
2024-01-20T02:43:26.920Z,50.38
2024-01-20T02:44:26.967Z,50.33
2024-01-20T02:45:27.048Z,49.77
2024-01-20T02:46:27.029Z,49.37
2024-01-20T02:47:27.073Z,49.29
2024-01-20T02:48:27.186Z,49.50
2024-01-20T02:49:27.277Z,49.08
2024-01-20T02:50:27.143Z,48.82
2024-01-20T02:51:27.226Z,48.64
2024-01-20T02:52:27.237Z,48.34
2024-01-20T02:53:27.276Z,49.19
2024-01-20T02:54:27.402Z,48.83
2024-01-20T02:55:27.367Z,48.50
2024-01-20T02:56:27.420Z,48.59
2024-01-20T02:57:27.531Z,49.87
2024-01-20T02:58:27.492Z,49.56
2024-01-20T02:59:27.561Z,49.70
2024-01-20T03:00:27.613Z,49.60
2024-01-20T03:01:27.622Z,49.41
2024-01-20T03:02:27.636Z,49.50
2024-01-20T03:03:27.798Z,49.27
2024-01-20T03:04:27.845Z,48.58
2024-01-20T03:05:27.819Z,48.53
2024-01-20T03:06:27.829Z,48.61
2024-01-20T03:07:27.887Z,48.81
2024-01-20T03:08:27.915Z,48.96
2024-01-20T03:09:28.053Z,49.44
2024-01-20T03:10:28.052Z,48.81
2024-01-20T03:11:28.120Z,48.98
2024-01-20T03:12:28.210Z,49.91
2024-01-20T03:13:28.213Z,51.01
2024-01-20T03:14:28.237Z,52.24
2024-01-20T03:15:28.290Z,52.42
2024-01-20T03:16:28.301Z,53.01
2024-01-20T03:17:28.325Z,54.36
2024-01-20T03:18:28.352Z,54.80
2024-01-20T03:19:28.366Z,54.87
2024-01-20T03:20:28.384Z,54.27
2024-01-20T03:21:28.592Z,53.23
2024-01-20T03:22:28.518Z,52.34
2024-01-20T03:23:28.556Z,52.18
2024-01-20T03:24:28.634Z,51.93
2024-01-20T03:25:28.678Z,52.01
2024-01-20T03:26:28.799Z,51.65
2024-01-20T03:27:28.839Z,51.13
2024-01-20T03:28:28.797Z,51.30
2024-01-20T03:29:28.838Z,51.46
2024-01-20T03:30:28.929Z,51.48
2024-01-20T03:31:28.973Z,51.39
2024-01-20T03:32:29.048Z,50.99
2024-01-20T03:33:29.155Z,50.99
2024-01-20T03:34:29.281Z,51.68
2024-01-20T03:35:29.158Z,51.88
2024-01-20T03:36:29.244Z,51.10
2024-01-20T03:37:29.232Z,51.18
2024-01-20T03:38:29.270Z,51.24
2024-01-20T03:39:29.375Z,50.76
2024-01-20T03:40:30.054Z,50.40
2024-01-20T03:41:29.386Z,50.82
2024-01-20T03:42:29.488Z,50.80
2024-01-20T03:43:29.424Z,50.75
2024-01-20T03:44:29.480Z,50.63
2024-01-20T03:45:29.638Z,52.17
2024-01-20T03:46:29.581Z,52.25
2024-01-20T03:47:31.050Z,52.63
2024-01-20T03:48:29.732Z,53.85
2024-01-20T03:49:29.788Z,54.10
2024-01-20T03:50:29.843Z,54.54
2024-01-20T03:51:29.925Z,55.01
2024-01-20T03:52:29.909Z,56.17
2024-01-20T03:53:29.959Z,55.50
2024-01-20T03:54:30.091Z,55.41
2024-01-20T03:55:30.037Z,55.74
2024-01-20T03:56:30.067Z,55.67
2024-01-20T03:57:30.209Z,55.94
2024-01-20T03:58:30.123Z,54.84
2024-01-20T03:59:30.147Z,53.38
2024-01-20T04:00:30.244Z,52.44
2024-01-20T04:01:30.200Z,51.89
2024-01-20T04:02:30.241Z,52.90
2024-01-20T04:03:30.350Z,53.71
2024-01-20T04:04:30.416Z,54.58
2024-01-20T04:05:30.405Z,55.32
2024-01-20T04:06:30.477Z,54.79
2024-01-20T04:07:30.481Z,53.81
2024-01-20T04:08:30.499Z,52.55
2024-01-20T04:09:30.548Z,52.09
2024-01-20T04:10:30.581Z,51.51
2024-01-20T04:11:30.618Z,51.18
2024-01-20T04:12:30.770Z,50.67
2024-01-20T04:13:30.717Z,50.41
2024-01-20T04:14:30.758Z,50.56
2024-01-20T04:15:30.860Z,50.81
2024-01-20T04:16:30.881Z,50.27
2024-01-20T04:17:30.934Z,50.33
2024-01-20T04:18:31.032Z,51.31
2024-01-20T04:19:31.041Z,51.68
2024-01-20T04:20:30.992Z,51.34
2024-01-20T04:21:31.043Z,52.66
2024-01-20T04:22:31.186Z,51.90
2024-01-20T04:23:31.193Z,50.67
2024-01-20T04:24:31.303Z,50.90
2024-01-20T04:25:31.245Z,51.07
2024-01-20T04:26:31.277Z,51.25
2024-01-20T04:27:31.384Z,50.81
2024-01-20T04:28:31.355Z,50.66
2024-01-20T04:29:31.404Z,50.94
2024-01-20T04:30:31.489Z,51.32
2024-01-20T04:31:31.506Z,51.75
2024-01-20T04:32:31.540Z,51.39
2024-01-20T04:33:31.611Z,51.04
2024-01-20T04:34:32.041Z,50.46
2024-01-20T04:35:31.645Z,50.25
2024-01-20T04:36:31.705Z,49.63
2024-01-20T04:37:31.718Z,49.17
2024-01-20T04:38:31.764Z,48.88
2024-01-20T04:39:32.558Z,48.38
2024-01-20T04:40:31.903Z,48.39
2024-01-20T04:41:31.986Z,48.74
2024-01-20T04:42:32.176Z,48.91
2024-01-20T04:43:32.103Z,49.07
2024-01-20T04:44:32.532Z,49.31
2024-01-20T04:45:32.306Z,49.02
2024-01-20T04:46:32.315Z,49.32
2024-01-20T04:47:32.399Z,49.40
2024-01-20T04:48:39.944Z,49.65
2024-01-20T04:49:39.827Z,49.43
2024-01-20T04:50:39.805Z,49.62
2024-01-20T04:51:39.811Z,50.14
2024-01-20T04:52:39.801Z,49.66
2024-01-20T04:53:39.824Z,49.70
2024-01-20T04:54:39.892Z,50.00
2024-01-20T04:55:39.800Z,49.86
2024-01-20T04:56:39.800Z,49.89
2024-01-20T04:57:39.878Z,50.54
2024-01-20T04:58:39.798Z,51.39
2024-01-20T04:59:39.814Z,51.30
2024-01-20T05:00:39.924Z,51.12
2024-01-20T05:01:40.943Z,50.94
2024-01-20T05:02:39.825Z,50.92
2024-01-20T05:03:39.979Z,51.61
2024-01-20T05:04:39.865Z,51.26
2024-01-20T05:05:39.886Z,50.94
2024-01-20T05:06:39.888Z,50.51
2024-01-20T05:07:39.832Z,50.08
2024-01-20T05:08:39.877Z,49.30
2024-01-20T05:09:39.866Z,50.03
2024-01-20T05:10:39.844Z,50.19
2024-01-20T05:11:39.838Z,49.09
2024-01-20T05:12:39.895Z,49.88
2024-01-20T05:13:39.861Z,50.47
2024-01-20T05:14:39.861Z,50.48
2024-01-20T05:15:39.926Z,50.14
2024-01-20T05:16:39.868Z,49.79
2024-01-20T05:17:39.891Z,49.23
2024-01-20T05:18:40.067Z,48.11
2024-01-20T05:19:40.089Z,47.53
2024-01-20T05:20:40.042Z,47.76
2024-01-20T05:21:39.995Z,48.00
2024-01-20T05:22:40.002Z,47.97
2024-01-20T05:23:40.016Z,48.04
2024-01-20T05:24:40.089Z,48.03
2024-01-20T05:25:40.136Z,48.25
2024-01-20T05:26:40.182Z,48.24
2024-01-20T05:27:40.250Z,48.24
2024-01-20T05:28:40.323Z,48.04
2024-01-20T05:29:40.386Z,48.27
2024-01-20T05:30:40.426Z,48.18
2024-01-20T05:31:40.464Z,47.99
2024-01-20T05:32:40.695Z,48.13
2024-01-20T05:33:40.786Z,49.45
2024-01-20T05:34:40.740Z,49.46
2024-01-20T05:35:40.740Z,49.23
2024-01-20T05:36:40.783Z,49.16
2024-01-20T05:37:40.840Z,49.64
2024-01-20T05:38:40.912Z,50.05
2024-01-20T05:39:40.970Z,50.38
2024-01-20T05:40:40.999Z,50.07
2024-01-20T05:41:41.063Z,50.67
2024-01-20T05:42:41.127Z,51.50
2024-01-20T05:43:41.164Z,51.90
2024-01-20T05:44:41.268Z,51.63
2024-01-20T05:45:41.324Z,52.33
2024-01-20T05:46:41.314Z,54.37
2024-01-20T05:47:41.402Z,54.41
2024-01-20T05:48:41.573Z,54.47
2024-01-20T05:49:41.461Z,54.35
2024-01-20T05:50:41.431Z,53.88
2024-01-20T05:51:41.464Z,53.71
2024-01-20T05:52:41.493Z,53.15
2024-01-20T05:53:41.503Z,53.23
2024-01-20T05:54:41.557Z,53.85
2024-01-20T05:55:41.535Z,54.44
2024-01-20T05:56:41.603Z,53.72
2024-01-20T05:57:41.673Z,53.38
2024-01-20T05:58:41.746Z,52.82
2024-01-20T05:59:41.761Z,51.77
2024-01-20T06:00:41.966Z,51.16
2024-01-20T06:01:41.924Z,50.55
2024-01-20T06:02:42.022Z,50.23
2024-01-20T06:03:42.141Z,50.16
2024-01-20T06:04:42.069Z,49.97
2024-01-20T06:05:42.088Z,49.82
2024-01-20T06:06:42.168Z,49.66
2024-01-20T06:07:42.093Z,49.35
2024-01-20T06:08:42.126Z,49.37
2024-01-20T06:09:42.182Z,49.49
2024-01-20T06:10:42.249Z,49.20
2024-01-20T06:11:42.308Z,49.14
2024-01-20T06:12:42.335Z,49.03
2024-01-20T06:13:42.373Z,49.52
2024-01-20T06:14:42.422Z,49.28
2024-01-20T06:15:42.490Z,48.90
2024-01-20T06:16:42.516Z,48.66
2024-01-20T06:17:42.629Z,48.57
2024-01-20T06:18:42.683Z,48.80
2024-01-20T06:19:42.846Z,48.49
2024-01-20T06:20:42.736Z,48.39
2024-01-20T06:21:42.808Z,48.57
2024-01-20T06:22:42.840Z,48.91
2024-01-20T06:23:42.876Z,48.78
2024-01-20T06:24:42.897Z,49.05
2024-01-20T06:25:42.917Z,49.40
2024-01-20T06:26:42.955Z,50.07
2024-01-20T06:27:43.012Z,50.95
2024-01-20T06:28:43.123Z,51.40
2024-01-20T06:29:43.157Z,51.39
2024-01-20T06:30:43.221Z,51.55
2024-01-20T06:31:43.270Z,51.30
2024-01-20T06:32:43.430Z,51.81
2024-01-20T06:33:43.474Z,52.96
2024-01-20T06:34:43.542Z,53.88
2024-01-20T06:35:43.500Z,54.67
2024-01-20T06:36:43.616Z,54.31
2024-01-20T06:37:43.666Z,54.69
2024-01-20T06:38:43.683Z,55.04
2024-01-20T06:39:43.737Z,55.18
2024-01-20T06:40:43.817Z,56.02
2024-01-20T06:41:43.882Z,56.43
2024-01-20T06:42:43.891Z,56.94
2024-01-20T06:43:43.937Z,56.13
2024-01-20T06:44:44.002Z,55.66
2024-01-20T06:45:44.133Z,54.68
2024-01-20T06:46:44.083Z,54.12
2024-01-20T06:47:44.219Z,53.38
2024-01-20T06:48:44.393Z,50.98
2024-01-20T06:49:44.294Z,50.91
2024-01-20T06:50:44.249Z,51.16
2024-01-20T06:51:44.299Z,51.23
2024-01-20T06:52:44.321Z,50.27
2024-01-20T06:53:44.388Z,49.95
2024-01-20T06:54:44.357Z,50.01
2024-01-20T06:55:44.390Z,50.07
2024-01-20T06:56:44.421Z,49.78
2024-01-20T06:57:44.454Z,50.57
2024-01-20T06:58:44.584Z,50.39
2024-01-20T06:59:44.587Z,49.56
2024-01-20T07:00:44.809Z,49.55
2024-01-20T07:01:44.720Z,49.27
2024-01-20T07:02:44.788Z,49.81
2024-01-20T07:03:44.943Z,50.03
2024-01-20T07:04:44.878Z,50.03
2024-01-20T07:05:44.909Z,49.65
2024-01-20T07:06:45.055Z,50.46
2024-01-20T07:07:44.989Z,52.12
2024-01-20T07:08:45.059Z,52.92
2024-01-20T07:09:45.083Z,53.79
2024-01-20T07:10:45.157Z,54.38
2024-01-20T07:11:45.181Z,54.85
2024-01-20T07:12:45.327Z,54.88
2024-01-20T07:13:45.303Z,54.34
2024-01-20T07:14:45.317Z,53.75
2024-01-20T07:15:45.372Z,53.23
2024-01-20T07:16:45.402Z,52.58
2024-01-20T07:17:45.506Z,51.37
2024-01-20T07:18:45.602Z,50.66
2024-01-20T07:19:45.657Z,50.67
2024-01-20T07:20:45.625Z,50.60
2024-01-20T07:21:45.635Z,50.52
2024-01-20T07:22:45.694Z,50.46
2024-01-20T07:23:45.743Z,50.09
2024-01-20T07:24:45.787Z,50.18
2024-01-20T07:25:45.829Z,50.37
2024-01-20T07:26:45.870Z,50.14
2024-01-20T07:27:45.878Z,50.49
2024-01-20T07:28:45.906Z,50.21
2024-01-20T07:29:45.950Z,50.40
2024-01-20T07:30:46.016Z,49.84
2024-01-20T07:31:46.084Z,50.13
2024-01-20T07:32:46.158Z,51.01
2024-01-20T07:33:46.261Z,50.02
2024-01-20T07:34:46.277Z,50.03
2024-01-20T07:35:46.280Z,50.74
2024-01-20T07:36:46.434Z,50.60
2024-01-20T07:37:46.417Z,50.63
2024-01-20T07:38:46.502Z,50.38
2024-01-20T07:39:46.568Z,50.40
2024-01-20T07:40:46.626Z,50.46
2024-01-20T07:41:46.688Z,50.48
2024-01-20T07:42:46.724Z,50.64
2024-01-20T07:43:46.849Z,51.37
2024-01-20T07:44:46.906Z,52.13
2024-01-20T07:45:47.034Z,52.71
2024-01-20T07:46:47.034Z,52.18
2024-01-20T07:47:47.133Z,52.12
2024-01-20T07:48:47.479Z,52.04
2024-01-20T07:49:47.345Z,51.53
2024-01-20T07:50:47.250Z,50.05
2024-01-20T07:51:47.304Z,49.83
2024-01-20T07:52:47.382Z,49.69
2024-01-20T07:53:47.441Z,49.94
2024-01-20T07:54:47.478Z,50.42
2024-01-20T07:55:47.510Z,49.89
2024-01-20T07:56:47.553Z,49.51
2024-01-20T07:57:47.623Z,48.06
2024-01-20T07:58:47.689Z,47.27
2024-01-20T07:59:47.748Z,47.11
2024-01-20T08:00:47.849Z,46.53
2024-01-20T08:01:47.788Z,47.68
2024-01-20T08:02:47.830Z,48.51
2024-01-20T08:03:47.949Z,48.44
2024-01-20T08:04:47.905Z,48.16
2024-01-20T08:05:47.972Z,49.24
2024-01-20T08:06:48.094Z,49.35
2024-01-20T08:07:48.062Z,48.81
2024-01-20T08:08:48.110Z,48.60
2024-01-20T08:09:48.134Z,49.23
2024-01-20T08:10:48.193Z,48.08
2024-01-20T08:11:48.240Z,47.14
2024-01-20T08:12:48.248Z,46.85
2024-01-20T08:13:48.290Z,47.82
2024-01-20T08:14:48.323Z,48.01
2024-01-20T08:15:48.403Z,48.21
2024-01-20T08:16:48.394Z,48.65
2024-01-20T08:17:48.434Z,48.33
2024-01-20T08:18:48.568Z,47.60
2024-01-20T08:19:48.609Z,47.88
2024-01-20T08:20:48.561Z,47.94
2024-01-20T08:21:48.633Z,47.88
2024-01-20T08:22:48.698Z,48.07
2024-01-20T08:23:48.771Z,47.54
2024-01-20T08:24:48.888Z,47.09
2024-01-20T08:25:48.896Z,46.58
2024-01-20T08:26:49.342Z,46.37
2024-01-20T08:27:49.010Z,46.10
2024-01-20T08:28:49.070Z,45.86
2024-01-20T08:29:49.125Z,45.73
2024-01-20T08:30:49.238Z,46.24
2024-01-20T08:31:49.195Z,46.78
2024-01-20T08:32:49.325Z,46.68
2024-01-20T08:33:49.470Z,47.44
2024-01-20T08:34:49.390Z,47.24
2024-01-20T08:35:49.427Z,47.17
2024-01-20T08:36:49.484Z,47.19
2024-01-20T08:37:49.549Z,47.02
2024-01-20T08:38:49.618Z,47.13
2024-01-20T08:39:49.634Z,47.10
2024-01-20T08:40:49.717Z,47.19
2024-01-20T08:41:49.860Z,48.05
2024-01-20T08:42:49.834Z,47.57
2024-01-20T08:43:49.901Z,47.18
2024-01-20T08:44:49.978Z,47.09
2024-01-20T08:45:50.004Z,47.27
2024-01-20T08:46:50.037Z,46.59
2024-01-20T08:47:50.080Z,46.81
2024-01-20T08:48:50.164Z,47.07
2024-01-20T08:49:50.162Z,47.68
2024-01-20T08:50:50.193Z,47.45
2024-01-20T08:51:50.229Z,47.54
2024-01-20T08:52:50.312Z,48.55
2024-01-20T08:53:50.340Z,49.05
2024-01-20T08:54:50.438Z,49.50
2024-01-20T08:55:50.461Z,50.61
2024-01-20T08:56:50.510Z,51.45
2024-01-20T08:57:50.578Z,51.42
2024-01-20T08:58:50.620Z,51.52
2024-01-20T08:59:50.682Z,51.68
2024-01-20T09:00:50.828Z,51.25
2024-01-20T09:01:50.780Z,51.46
2024-01-20T09:02:50.844Z,51.73
2024-01-20T09:03:50.930Z,50.97
2024-01-20T09:04:50.869Z,50.60
2024-01-20T09:05:50.900Z,49.88
2024-01-20T09:06:50.974Z,49.42
2024-01-20T09:07:50.942Z,49.23
2024-01-20T09:08:50.945Z,48.74
2024-01-20T09:09:50.959Z,47.86
2024-01-20T09:10:51.022Z,47.36
2024-01-20T09:11:51.075Z,47.75
2024-01-20T09:12:51.117Z,47.34
2024-01-20T09:13:51.173Z,47.53
2024-01-20T09:14:51.285Z,47.61
2024-01-20T09:15:51.397Z,47.21
2024-01-20T09:16:51.413Z,46.68
2024-01-20T09:17:51.446Z,47.05
2024-01-20T09:18:52.006Z,46.37
2024-01-20T09:19:51.640Z,46.10
2024-01-20T09:20:51.505Z,45.98
2024-01-20T09:21:51.530Z,45.67
2024-01-20T09:22:51.584Z,45.91
2024-01-20T09:23:51.618Z,45.44
2024-01-20T09:24:51.664Z,44.93
2024-01-20T09:25:51.700Z,44.62
2024-01-20T09:26:51.731Z,44.91
2024-01-20T09:27:51.785Z,44.38
2024-01-20T09:28:51.870Z,45.00
2024-01-20T09:29:51.877Z,44.66
2024-01-20T09:30:51.908Z,45.02
2024-01-20T09:31:51.934Z,45.54
2024-01-20T09:32:52.038Z,45.99
2024-01-20T09:33:52.124Z,46.33
2024-01-20T09:34:52.046Z,45.80
2024-01-20T09:35:52.041Z,46.31
2024-01-20T09:36:52.063Z,46.15
2024-01-20T09:37:52.083Z,45.52
2024-01-20T09:38:52.055Z,44.91
2024-01-20T09:39:52.106Z,45.06
2024-01-20T09:40:52.164Z,44.85
2024-01-20T09:41:52.143Z,44.79
2024-01-20T09:42:52.187Z,45.39
2024-01-20T09:43:52.260Z,45.40
2024-01-20T09:44:52.307Z,44.94
2024-01-20T09:45:52.403Z,45.05
2024-01-20T09:46:52.471Z,44.94
2024-01-20T09:47:52.619Z,44.97
2024-01-20T09:48:52.693Z,44.98
2024-01-20T09:49:52.693Z,44.59
2024-01-20T09:50:52.663Z,44.86
2024-01-20T09:51:52.743Z,44.12
2024-01-20T09:52:52.813Z,43.83
2024-01-20T09:53:52.844Z,43.07
2024-01-20T09:54:52.897Z,42.88
2024-01-20T09:55:52.958Z,42.58
2024-01-20T09:56:53.000Z,42.41
2024-01-20T09:57:53.045Z,42.01
2024-01-20T09:58:53.078Z,41.60
2024-01-20T09:59:53.112Z,41.55
2024-01-20T10:00:53.225Z,41.39
2024-01-20T10:01:53.220Z,41.10
2024-01-20T10:02:53.340Z,40.49
2024-01-20T10:03:53.382Z,40.19
2024-01-20T10:04:53.418Z,39.96
2024-01-20T10:05:53.559Z,39.63
2024-01-20T10:06:53.505Z,38.81
2024-01-20T10:07:53.539Z,38.16
2024-01-20T10:08:53.587Z,38.06
2024-01-20T10:09:53.609Z,38.12
2024-01-20T10:10:53.604Z,37.70
2024-01-20T10:11:53.644Z,37.41
2024-01-20T10:12:53.689Z,37.32
2024-01-20T10:13:53.720Z,37.40
2024-01-20T10:14:53.775Z,37.35
2024-01-20T10:15:53.893Z,37.11
2024-01-20T10:16:53.905Z,37.54
2024-01-20T10:17:53.973Z,37.04
2024-01-20T10:18:54.030Z,36.68
2024-01-20T10:19:53.986Z,37.03
2024-01-20T10:20:54.007Z,37.54
2024-01-20T10:21:54.029Z,39.21
2024-01-20T10:22:54.116Z,39.64
2024-01-20T10:23:54.073Z,40.67
2024-01-20T10:24:54.060Z,41.30
2024-01-20T10:25:54.114Z,41.20
2024-01-20T10:26:54.141Z,41.44
2024-01-20T10:27:54.170Z,41.85
2024-01-20T10:28:54.182Z,40.99
2024-01-20T10:29:54.189Z,41.33
2024-01-20T10:30:54.293Z,41.28
2024-01-20T10:31:54.277Z,41.06
2024-01-20T10:33:04.124Z,41.11
2024-01-20T10:33:55.389Z,41.15
2024-01-20T10:34:54.412Z,40.28
2024-01-20T10:35:54.355Z,40.01
2024-01-20T10:36:54.331Z,40.14
2024-01-20T10:37:54.314Z,40.93
2024-01-20T10:38:54.318Z,40.65
2024-01-20T10:39:54.349Z,40.57
2024-01-20T10:40:54.374Z,39.60
2024-01-20T10:41:54.330Z,40.28
2024-01-20T10:42:55.725Z,38.78
2024-01-20T10:43:54.433Z,38.52
2024-01-20T10:44:54.456Z,38.45
2024-01-20T10:45:54.553Z,38.04
2024-01-20T10:46:54.555Z,37.98
2024-01-20T10:47:54.725Z,38.35
2024-01-20T10:48:54.897Z,38.23
2024-01-20T10:49:54.846Z,38.16
2024-01-20T10:50:54.759Z,37.58
2024-01-20T10:51:54.891Z,36.72
2024-01-20T10:52:54.872Z,36.16
2024-01-20T10:53:54.901Z,35.83
2024-01-20T10:54:54.948Z,36.25
2024-01-20T10:55:55.027Z,36.18
2024-01-20T10:56:55.065Z,35.55
2024-01-20T10:57:55.092Z,35.14
2024-01-20T10:58:55.149Z,34.80
2024-01-20T10:59:55.184Z,34.88
2024-01-20T11:00:55.382Z,34.31
2024-01-20T11:01:55.271Z,35.07
2024-01-20T11:02:55.334Z,35.70
2024-01-20T11:03:55.474Z,36.24
2024-01-20T11:04:55.422Z,35.80
2024-01-20T11:05:55.478Z,35.79
2024-01-20T11:06:55.519Z,35.81
2024-01-20T11:07:55.487Z,36.76
2024-01-20T11:08:55.573Z,35.85
2024-01-20T11:09:55.605Z,36.19
2024-01-20T11:10:55.714Z,37.07
2024-01-20T11:11:55.732Z,36.96
2024-01-20T11:12:55.776Z,36.91
2024-01-20T11:13:55.843Z,37.39
2024-01-20T11:14:55.878Z,36.21
2024-01-20T11:15:55.927Z,36.30
2024-01-20T11:16:55.955Z,36.38
2024-01-20T11:17:56.062Z,35.47
2024-01-20T11:18:56.126Z,35.55
2024-01-20T11:19:56.174Z,35.31
2024-01-20T11:20:56.187Z,35.49
2024-01-20T11:21:56.181Z,35.77
2024-01-20T11:22:56.208Z,35.09
2024-01-20T11:23:56.207Z,35.01
2024-01-20T11:24:56.347Z,34.53
2024-01-20T11:25:56.276Z,34.41
2024-01-20T11:26:56.290Z,33.98
2024-01-20T11:27:56.334Z,33.51
2024-01-20T11:28:56.389Z,33.75
2024-01-20T11:29:56.381Z,33.75
2024-01-20T11:30:56.463Z,33.67
2024-01-20T11:31:56.391Z,33.75
2024-01-20T11:32:56.541Z,33.71
2024-01-20T11:33:56.576Z,33.44
2024-01-20T11:34:56.490Z,33.20
2024-01-20T11:35:56.562Z,32.91
2024-01-20T11:36:56.599Z,33.28
2024-01-20T11:37:56.622Z,33.35
2024-01-20T11:38:56.661Z,33.24
2024-01-20T11:39:56.700Z,32.28
2024-01-20T11:40:56.750Z,31.98
2024-01-20T11:41:56.826Z,32.01
2024-01-20T11:42:56.863Z,32.13
2024-01-20T11:43:56.872Z,31.93
2024-01-20T11:44:56.969Z,31.78
2024-01-20T11:45:56.983Z,31.65
2024-01-20T11:46:56.992Z,31.20
2024-01-20T11:47:57.096Z,31.21
2024-01-20T11:48:57.124Z,30.97
2024-01-20T11:49:57.104Z,31.12
2024-01-20T11:50:57.199Z,31.55
2024-01-20T11:51:57.138Z,31.32
2024-01-20T11:52:57.174Z,31.56
2024-01-20T11:53:57.246Z,31.20
2024-01-20T11:54:57.249Z,32.38
2024-01-20T11:55:57.280Z,31.30
2024-01-20T11:56:57.377Z,31.44
2024-01-20T11:57:57.346Z,30.75
2024-01-20T11:58:57.380Z,30.82
2024-01-20T11:59:57.443Z,30.85
2024-01-20T12:00:57.492Z,30.37
2024-01-20T12:01:57.485Z,30.26
2024-01-20T12:02:57.563Z,30.22
2024-01-20T12:03:57.554Z,30.44
2024-01-20T12:05:02.260Z,30.30
2024-01-20T12:05:58.673Z,30.20
2024-01-20T12:06:57.625Z,30.08
2024-01-20T12:07:57.594Z,29.64
2024-01-20T12:08:57.647Z,29.77
2024-01-20T12:09:57.561Z,29.76
2024-01-20T12:10:57.564Z,29.82
2024-01-20T12:11:57.603Z,29.08
2024-01-20T12:12:57.554Z,29.41
2024-01-20T12:13:57.564Z,29.32
2024-01-20T12:14:57.651Z,28.80
2024-01-20T12:15:57.585Z,28.93
2024-01-20T12:16:57.574Z,28.28
2024-01-20T12:17:57.687Z,28.53
2024-01-20T12:18:57.657Z,28.51
2024-01-20T12:19:57.677Z,28.57
2024-01-20T12:20:57.657Z,28.94
2024-01-20T12:21:57.689Z,28.70
2024-01-20T12:22:57.742Z,28.83
2024-01-20T12:23:57.841Z,28.47
2024-01-20T12:24:57.835Z,28.21
2024-01-20T12:25:57.895Z,28.99
2024-01-20T12:26:57.985Z,29.71
2024-01-20T12:27:58.011Z,29.73
2024-01-20T12:28:58.059Z,30.45
2024-01-20T12:29:58.114Z,30.24
2024-01-20T12:30:58.164Z,30.12
2024-01-20T12:31:58.190Z,30.00
2024-01-20T12:32:58.411Z,30.29
2024-01-20T12:33:58.298Z,30.53
2024-01-20T12:34:58.294Z,29.97
2024-01-20T12:35:58.444Z,29.96
2024-01-20T12:36:58.348Z,31.24
2024-01-20T12:37:58.399Z,32.51
2024-01-20T12:38:58.479Z,32.31
2024-01-20T12:39:58.476Z,31.90
2024-01-20T12:40:58.519Z,31.50
2024-01-20T12:41:58.610Z,31.29
2024-01-20T12:42:58.596Z,31.00
2024-01-20T12:43:58.620Z,31.07
2024-01-20T12:44:58.666Z,31.04
2024-01-20T12:45:58.648Z,31.76
2024-01-20T12:46:58.692Z,31.51
2024-01-20T12:47:58.883Z,30.77
2024-01-20T12:48:58.835Z,30.47
2024-01-20T12:49:58.858Z,30.04
2024-01-20T12:50:58.902Z,29.92
2024-01-20T12:51:58.902Z,29.63
2024-01-20T12:52:58.968Z,29.34